Time;durP1;ratioP1;P1;durP2;ratioP2;P2;SDS_P1;SDS_P2;PMS_P1;PMS_P2;Temp;Humidity;BMP_temperature;BMP_pressure;BME280_temperature;BME280_humidity;BME280_pressure;Samples;Min_cycle;Max_cycle;Signal;HPM_P1;HPM_P2
2024/01/16 00:00:52;;;;;;;4.47;1.27;;;;;;;-0.11;100.00;99844.75;4965156;28;23477;-69
2024/01/16 00:03:19;;;;;;;3.13;1.47;;;;;;;-0.10;100.00;99852.63;4968235;28;20229;-71
2024/01/16 00:05:45;;;;;;;3.67;1.33;;;;;;;0.06;100.00;99840.34;4972034;28;20721;-70
2024/01/16 00:08:12;;;;;;;5.10;1.73;;;;;;;0.21;100.00;99849.75;4971482;28;20204;-72
2024/01/16 00:10:38;;;;;;;4.63;1.43;;;;;;;0.33;100.00;99852.00;4970152;28;20225;-71
2024/01/16 00:13:04;;;;;;;3.03;1.40;;;;;;;0.32;100.00;99853.72;4971593;28;20212;-70
2024/01/16 00:15:31;;;;;;;3.50;1.80;;;;;;;0.34;100.00;99859.00;4971515;28;20205;-71
2024/01/16 00:17:57;;;;;;;3.63;1.57;;;;;;;0.21;100.00;99862.75;4964605;28;20221;-70
2024/01/16 00:20:25;;;;;;;4.13;1.60;;;;;;;0.06;100.00;99863.78;4971335;28;20222;-70
2024/01/16 00:22:51;;;;;;;5.33;1.43;;;;;;;-0.01;100.00;99862.56;4967871;28;20208;-74
2024/01/16 00:25:21;;;;;;;4.47;2.13;;;;;;;-0.05;100.00;99865.88;4970741;28;20226;-73
2024/01/16 00:27:47;;;;;;;2.33;1.40;;;;;;;-0.17;100.00;99852.28;4969354;28;20261;-71
2024/01/16 00:30:14;;;;;;;3.27;1.57;;;;;;;-0.06;100.00;99870.19;4970538;28;20202;-71
2024/01/16 00:32:40;;;;;;;2.87;1.53;;;;;;;-0.16;100.00;99861.88;4967960;28;20216;-71
2024/01/16 00:35:07;;;;;;;3.10;1.70;;;;;;;-0.29;100.00;99856.91;4969303;28;20209;-71
2024/01/16 00:37:36;;;;;;;3.57;1.97;;;;;;;-0.34;100.00;99860.19;4969677;28;20672;-72
2024/01/16 00:40:04;;;;;;;6.80;1.43;;;;;;;-0.48;100.00;99865.53;4970587;28;20267;-70
2024/01/16 00:42:31;;;;;;;4.43;1.63;;;;;;;-0.58;100.00;99866.81;4964536;28;20798;-71
2024/01/16 00:44:58;;;;;;;4.83;1.80;;;;;;;-0.49;100.00;99868.94;4968477;28;20218;-70
2024/01/16 00:47:24;;;;;;;2.27;1.40;;;;;;;-0.32;100.00;99876.78;4970691;28;20222;-71
2024/01/16 00:49:51;;;;;;;3.10;1.43;;;;;;;-0.31;100.00;99867.25;4964717;28;20761;-71
2024/01/16 00:52:17;;;;;;;2.20;1.43;;;;;;;-0.43;100.00;99862.34;4963517;28;20805;-73
2024/01/16 00:54:44;;;;;;;2.67;1.87;;;;;;;-0.43;100.00;99870.13;4964846;28;20291;-71
2024/01/16 00:57:10;;;;;;;2.50;1.60;;;;;;;-0.41;100.00;99881.50;4970573;28;20294;-70
2024/01/16 00:59:37;;;;;;;3.47;1.63;;;;;;;-0.54;100.00;99873.03;4970044;28;20281;-70
2024/01/16 01:02:03;;;;;;;3.30;1.33;;;;;;;-0.57;100.00;99872.91;4970436;28;20317;-70
2024/01/16 01:04:32;;;;;;;2.87;1.40;;;;;;;-0.50;100.00;99874.97;4963670;28;20202;-70
2024/01/16 01:06:59;;;;;;;2.70;1.13;;;;;;;-0.28;100.00;99877.81;4970932;28;20198;-69
2024/01/16 01:09:25;;;;;;;2.40;1.50;;;;;;;-0.31;100.00;99867.25;4968851;28;20202;-71
2024/01/16 01:11:51;;;;;;;3.03;1.67;;;;;;;-0.18;100.00;99873.94;4966924;28;20233;-69
2024/01/16 01:14:18;;;;;;;3.23;2.03;;;;;;;-0.14;100.00;99887.16;4969149;28;20293;-70
2024/01/16 01:16:45;;;;;;;1.80;1.17;;;;;;;-0.15;100.00;99890.56;4969224;28;20626;-70
2024/01/16 01:19:12;;;;;;;2.07;1.60;;;;;;;-0.24;100.00;99886.66;4969956;28;20524;-69
2024/01/16 01:21:39;;;;;;;2.27;1.40;;;;;;;-0.35;100.00;99889.63;4969522;28;20277;-72
2024/01/16 01:24:05;;;;;;;2.77;1.80;;;;;;;-0.58;100.00;99884.13;4967560;28;20694;-69
2024/01/16 01:26:31;;;;;;;7.73;2.20;;;;;;;-0.63;100.00;99889.09;4970343;28;20223;-69
2024/01/16 01:28:58;;;;;;;5.17;1.90;;;;;;;-0.66;100.00;99888.94;4965651;28;20210;-71
2024/01/16 01:31:24;;;;;;;2.73;1.67;;;;;;;-0.68;100.00;99894.06;4969698;28;20605;-69
2024/01/16 01:33:51;;;;;;;4.90;2.00;;;;;;;-0.58;100.00;99902.31;4970682;28;20295;-70
2024/01/16 01:36:17;;;;;;;4.20;1.47;;;;;;;-0.58;100.00;99894.50;4969045;28;20222;-72
2024/01/16 01:38:43;;;;;;;5.13;1.67;;;;;;;-0.42;100.00;99902.25;4964999;28;20659;-72
2024/01/16 01:41:11;;;;;;;3.83;1.77;;;;;;;-0.23;100.00;99893.63;4967580;28;20224;-70
2024/01/16 01:43:38;;;;;;;8.90;2.93;;;;;;;-0.04;100.00;99898.88;4967636;28;20673;-70
2024/01/16 01:46:18;;;;;;;5.70;1.50;;;;;;;0.10;100.00;99897.84;4970090;28;20222;-68
2024/01/16 01:48:47;;;;;;;5.73;1.50;;;;;;;0.16;100.00;99903.31;4970111;28;20223;-70
2024/01/16 01:51:19;;;;;;;6.00;2.13;;;;;;;0.27;100.00;99903.81;4969478;28;20492;-70
2024/01/16 01:53:50;;;;;;;3.67;1.70;;;;;;;0.37;100.00;99912.94;4967911;28;20253;-70
2024/01/16 01:56:19;;;;;;;5.13;2.70;;;;;;;0.38;100.00;99912.09;4970198;28;20215;-70
2024/01/16 01:58:47;;;;;;;4.87;2.00;;;;;;;0.28;100.00;99918.63;4965389;28;20246;-70
2024/01/16 02:01:16;;;;;;;4.60;1.63;;;;;;;0.35;100.00;99918.06;4966827;28;20271;-71
2024/01/16 02:03:44;;;;;;;7.87;3.13;;;;;;;0.36;100.00;99922.47;4967348;28;20293;-71
2024/01/16 02:06:12;;;;;;;3.03;1.73;;;;;;;0.30;100.00;99911.75;4969500;28;20711;-70
2024/01/16 02:08:39;;;;;;;6.60;2.20;;;;;;;0.20;100.00;99919.97;4969591;28;20630;-71
2024/01/16 02:11:06;;;;;;;3.23;1.70;;;;;;;0.17;100.00;99923.34;4967139;28;20303;-70
2024/01/16 02:13:33;;;;;;;3.17;2.13;;;;;;;0.27;100.00;99915.13;4967306;28;20200;-70
2024/01/16 02:15:59;;;;;;;4.37;2.17;;;;;;;0.32;100.00;99904.91;4970593;28;20230;-71
2024/01/16 02:18:26;;;;;;;3.77;1.77;;;;;;;0.27;100.00;99909.03;4971205;28;20218;-71
2024/01/16 02:20:57;;;;;;;8.37;1.93;;;;;;;0.26;100.00;99915.06;4969681;28;20224;-70
2024/01/16 02:23:26;;;;;;;10.90;2.37;;;;;;;0.20;100.00;99904.34;4964065;28;20297;-68
2024/01/16 02:25:54;;;;;;;3.23;1.67;;;;;;;0.28;100.00;99924.72;4973497;28;20309;-70
2024/01/16 02:28:20;;;;;;;2.27;1.33;;;;;;;0.24;100.00;99920.19;4968424;28;20691;-70
2024/01/16 02:30:47;;;;;;;3.37;1.80;;;;;;;0.31;100.00;99914.44;4972372;28;20222;-69
2024/01/16 02:33:13;;;;;;;3.80;1.83;;;;;;;0.30;100.00;99920.47;4972996;28;20724;-69
2024/01/16 02:35:40;;;;;;;3.50;1.80;;;;;;;0.24;100.00;99906.28;4972682;28;20195;-69
2024/01/16 02:38:06;;;;;;;6.33;2.37;;;;;;;0.22;100.00;99911.41;4961882;28;20412;-71
2024/01/16 02:40:33;;;;;;;4.80;1.83;;;;;;;0.20;100.00;99896.53;4972556;28;20223;-71
2024/01/16 02:42:59;;;;;;;8.10;2.43;;;;;;;0.20;100.00;99919.97;4969215;28;20670;-70
2024/01/16 02:45:25;;;;;;;2.63;1.60;;;;;;;0.13;100.00;99912.69;4973407;28;20740;-70
2024/01/16 02:47:52;;;;;;;2.83;1.60;;;;;;;0.02;100.00;99914.81;4973349;28;20581;-69
2024/01/16 02:50:20;;;;;;;5.60;2.00;;;;;;;-0.05;100.00;99916.19;4966871;28;20202;-70
2024/01/16 02:52:46;;;;;;;4.80;1.80;;;;;;;-0.20;100.00;99915.47;4965482;28;20207;-69
2024/01/16 02:55:13;;;;;;;9.23;2.37;;;;;;;-0.14;100.00;99920.09;4970076;28;20203;-71
2024/01/16 02:57:39;;;;;;;4.60;1.60;;;;;;;-0.19;100.00;99925.06;4973160;28;20203;-70
2024/01/16 03:00:07;;;;;;;2.93;1.30;;;;;;;-0.08;100.00;99922.97;4967293;28;20214;-70
2024/01/16 03:02:34;;;;;;;4.70;1.57;;;;;;;-0.21;100.00;99916.31;4966518;28;20620;-71
2024/01/16 03:05:03;;;;;;;7.53;2.30;;;;;;;-0.35;100.00;99922.56;4959508;28;20266;-70
2024/01/16 03:07:30;;;;;;;4.90;1.90;;;;;;;-0.36;100.00;99921.66;4968805;28;20590;-70
2024/01/16 03:09:56;;;;;;;2.33;1.67;;;;;;;-0.40;100.00;99937.03;4967366;28;20217;-71
2024/01/16 03:12:23;;;;;;;2.50;1.57;;;;;;;-0.52;100.00;99926.91;4970738;28;20218;-70
2024/01/16 03:14:49;;;;;;;3.73;2.10;;;;;;;-0.64;100.00;99941.91;4971560;28;20206;-70
2024/01/16 03:17:16;;;;;;;6.93;2.40;;;;;;;-0.83;100.00;99947.88;4971370;28;20257;-70
2024/01/16 03:19:43;;;;;;;4.37;2.10;;;;;;;-0.76;100.00;99946.50;4971053;28;20473;-70
2024/01/16 03:22:10;;;;;;;2.57;1.60;;;;;;;-0.96;100.00;99964.53;4966127;28;20227;-70
2024/01/16 03:24:36;;;;;;;3.50;1.73;;;;;;;-0.93;100.00;99963.81;4972223;28;20201;-70
2024/01/16 03:27:04;;;;;;;2.00;1.53;;;;;;;-0.86;100.00;99960.72;4972249;28;20234;-69
2024/01/16 03:29:30;;;;;;;5.47;2.17;;;;;;;-0.95;100.00;99961.13;4971950;28;20689;-69
2024/01/16 03:31:56;;;;;;;2.60;1.33;;;;;;;-1.12;100.00;99961.97;4970521;28;20230;-68
2024/01/16 03:34:23;;;;;;;5.97;2.20;;;;;;;-1.22;100.00;99964.88;4965883;28;20213;-70
2024/01/16 03:36:50;;;;;;;8.33;1.70;;;;;;;-1.34;100.00;99959.94;4972473;28;20232;-71
2024/01/16 03:39:17;;;;;;;4.27;1.47;;;;;;;-1.43;100.00;99966.34;4969123;28;20201;-69
2024/01/16 03:41:43;;;;;;;4.27;2.03;;;;;;;-1.59;100.00;99962.94;4968405;28;20236;-68
2024/01/16 03:44:09;;;;;;;3.93;1.87;;;;;;;-1.80;100.00;99959.16;4967869;28;20679;-70
2024/01/16 03:46:36;;;;;;;3.40;1.83;;;;;;;-1.83;100.00;99965.88;4972010;28;20226;-71
2024/01/16 03:49:02;;;;;;;4.13;2.13;;;;;;;-1.97;100.00;99958.22;4971563;28;20212;-69
2024/01/16 03:51:29;;;;;;;3.43;2.00;;;;;;;-2.01;100.00;99963.13;4968381;28;20321;-68
2024/01/16 03:53:57;;;;;;;5.47;2.10;;;;;;;-1.95;100.00;99972.19;4969450;28;20238;-71
2024/01/16 03:56:24;;;;;;;3.83;1.50;;;;;;;-2.04;100.00;99966.44;4970910;28;20284;-70
2024/01/16 03:58:50;;;;;;;3.93;2.30;;;;;;;-1.88;100.00;99977.72;4971500;28;20285;-70
2024/01/16 04:01:17;;;;;;;2.30;1.60;;;;;;;-1.94;100.00;99968.78;4966410;28;20418;-69
2024/01/16 04:03:43;;;;;;;2.93;1.50;;;;;;;-1.98;100.00;99966.81;4969608;28;20343;-70
2024/01/16 04:06:17;;;;;;;2.43;1.50;;;;;;;-1.99;100.00;99967.63;4971782;28;20272;-70
2024/01/16 04:08:45;;;;;;;3.60;1.40;;;;;;;-1.92;100.00;99966.25;4970206;28;20249;-70
2024/01/16 04:11:14;;;;;;;5.43;1.83;;;;;;;-1.82;100.00;99972.84;4970610;28;20224;-69
2024/01/16 04:13:42;;;;;;;6.23;2.37;;;;;;;-1.74;100.00;99982.84;4971229;28;20202;-71
2024/01/16 04:16:08;;;;;;;4.10;1.70;;;;;;;-1.63;100.00;99975.63;4968687;28;20224;-70
2024/01/16 04:18:39;;;;;;;3.70;1.80;;;;;;;-1.57;100.00;99970.81;4971115;28;20209;-71
2024/01/16 04:21:06;;;;;;;2.93;1.50;;;;;;;-1.35;100.00;99970.25;4971233;28;20710;-71
2024/01/16 04:23:32;;;;;;;3.53;2.03;;;;;;;-1.33;100.00;99971.22;4969587;28;20203;-68
2024/01/16 04:25:59;;;;;;;5.10;2.20;;;;;;;-1.29;100.00;99967.97;4966680;28;20226;-71
2024/01/16 04:28:26;;;;;;;4.37;1.67;;;;;;;-1.22;100.00;99963.97;4970796;28;20442;-69
2024/01/16 04:30:52;;;;;;;3.53;2.10;;;;;;;-1.19;100.00;99969.38;4966053;28;20714;-70
2024/01/16 04:33:19;;;;;;;6.13;2.00;;;;;;;-1.15;100.00;99961.81;4970871;28;20304;-70
2024/01/16 04:35:46;;;;;;;8.50;1.60;;;;;;;-1.11;100.00;99975.84;4971264;28;20198;-68
2024/01/16 04:38:13;;;;;;;2.50;1.50;;;;;;;-1.17;100.00;99954.75;4970588;28;20211;-70
2024/01/16 04:40:40;;;;;;;9.07;2.13;;;;;;;-1.03;100.00;99967.66;4965058;28;20222;-71
2024/01/16 04:43:06;;;;;;;2.60;1.60;;;;;;;-1.01;100.00;99966.00;4965737;28;20297;-70
2024/01/16 04:45:33;;;;;;;4.77;2.17;;;;;;;-0.92;100.00;99972.50;4971242;28;20233;-68
2024/01/16 04:47:59;;;;;;;4.47;1.70;;;;;;;-0.85;100.00;99962.50;4971186;28;20214;-72
2024/01/16 04:50:31;;;;;;;2.20;1.60;;;;;;;-0.84;100.00;99966.88;4967680;28;20615;-70
2024/01/16 04:53:01;;;;;;;6.03;2.20;;;;;;;-0.83;100.00;99959.97;4962744;28;20689;-69
2024/01/16 04:55:29;;;;;;;5.57;1.50;;;;;;;-0.76;100.00;99959.50;4969447;28;20205;-69
2024/01/16 04:57:56;;;;;;;5.13;1.80;;;;;;;-0.75;100.00;99958.69;4970553;28;20224;-70
2024/01/16 05:00:23;;;;;;;3.60;1.70;;;;;;;-0.81;100.00;99947.94;4969387;28;20684;-70
2024/01/16 05:02:49;;;;;;;4.10;1.53;;;;;;;-0.73;100.00;99957.94;4964653;28;20206;-70
2024/01/16 05:05:16;;;;;;;3.67;1.93;;;;;;;-0.78;100.00;99959.41;4970196;28;20232;-69
2024/01/16 05:07:42;;;;;;;5.80;2.33;;;;;;;-0.83;100.00;99957.38;4970842;28;20292;-71
2024/01/16 05:10:12;;;;;;;4.43;1.77;;;;;;;-0.79;100.00;99952.44;4969395;28;20221;-69
2024/01/16 05:12:42;;;;;;;4.00;1.57;;;;;;;-0.68;100.00;99958.19;4961934;28;20208;-73
2024/01/16 05:15:14;;;;;;;5.40;1.60;;;;;;;-0.77;100.00;99942.13;4970454;28;20263;-70
2024/01/16 05:17:40;;;;;;;4.13;1.70;;;;;;;-0.70;100.00;99955.50;4969390;28;20206;-71
2024/01/16 05:20:08;;;;;;;11.37;2.30;;;;;;;-0.77;100.00;99955.13;4969035;28;20206;-70
2024/01/16 05:22:34;;;;;;;5.67;1.80;;;;;;;-0.84;100.00;99953.00;4966062;28;20202;-70
2024/01/16 05:25:01;;;;;;;4.97;1.97;;;;;;;-0.84;100.00;99943.47;4970363;28;20202;-70
2024/01/16 05:27:27;;;;;;;2.10;1.43;;;;;;;-0.87;100.00;99947.63;4970472;28;20225;-70
2024/01/16 05:29:53;;;;;;;4.60;1.77;;;;;;;-0.83;100.00;99946.97;4970533;28;20289;-70
2024/01/16 05:32:20;;;;;;;4.17;1.83;;;;;;;-0.80;100.00;99945.47;4963360;28;20255;-70
2024/01/16 05:34:46;;;;;;;6.43;1.70;;;;;;;-0.74;100.00;99937.97;4970470;28;20663;-70
2024/01/16 05:37:13;;;;;;;4.77;1.80;;;;;;;-0.72;100.00;99932.84;4970606;28;20208;-70
2024/01/16 05:39:40;;;;;;;3.73;1.97;;;;;;;-0.72;100.00;99927.63;4969777;28;20236;-70
2024/01/16 05:42:06;;;;;;;4.20;1.83;;;;;;;-0.75;100.00;99933.56;4966724;28;20666;-70
2024/01/16 05:44:33;;;;;;;3.77;1.70;;;;;;;-0.82;100.00;99922.75;4964386;28;20762;-70
2024/01/16 05:46:59;;;;;;;3.87;2.10;;;;;;;-0.84;100.00;99919.19;4970265;28;20733;-69
2024/01/16 05:49:26;;;;;;;6.03;1.53;;;;;;;-0.89;100.00;99911.16;4970125;28;20294;-70
2024/01/16 05:51:52;;;;;;;2.97;1.77;;;;;;;-0.99;100.00;99908.94;4969628;28;20226;-70
2024/01/16 05:54:18;;;;;;;2.50;1.27;;;;;;;-1.09;100.00;99898.88;4965051;28;20514;-68
2024/01/16 05:56:45;;;;;;;6.17;1.93;;;;;;;-1.19;100.00;99909.63;4969573;28;20252;-70
2024/01/16 05:59:11;;;;;;;2.20;1.50;;;;;;;-1.36;100.00;99906.13;4970190;28;20205;-70
2024/01/16 06:01:38;;;;;;;5.97;2.00;;;;;;;-1.46;100.00;99901.28;4969631;28;20761;-70
2024/01/16 06:04:04;;;;;;;3.23;1.67;;;;;;;-1.54;100.00;99905.16;4964107;28;20250;-70
2024/01/16 06:06:31;;;;;;;6.27;2.00;;;;;;;-1.70;100.00;99911.22;4969913;28;20217;-70
2024/01/16 06:08:59;;;;;;;3.77;1.70;;;;;;;-1.74;100.00;99901.50;4970229;28;20215;-72
2024/01/16 06:11:32;;;;;;;2.77;1.77;;;;;;;-1.86;100.00;99903.44;4966393;28;20228;-72
2024/01/16 06:13:59;;;;;;;4.17;2.30;;;;;;;-1.95;100.00;99896.03;4970870;28;20582;-70
2024/01/16 06:16:26;;;;;;;3.93;1.80;;;;;;;-2.03;100.00;99903.38;4970141;28;20206;-70
2024/01/16 06:18:52;;;;;;;6.13;1.60;;;;;;;-2.02;100.00;99906.88;4967837;28;20581;-70
2024/01/16 06:21:18;;;;;;;5.37;1.80;;;;;;;-2.07;100.00;99898.84;4966194;28;20217;-68
2024/01/16 06:23:48;;;;;;;2.20;1.50;;;;;;;-2.11;100.00;99911.56;4966914;28;20662;-71
2024/01/16 06:26:15;;;;;;;3.20;1.70;;;;;;;-2.15;100.00;99920.88;4970062;28;20221;-68
2024/01/16 06:28:42;;;;;;;2.43;1.20;;;;;;;-2.32;100.00;99919.94;4965139;28;20252;-70
2024/01/16 06:31:09;;;;;;;8.47;1.87;;;;;;;-2.37;100.00;99918.78;4968192;28;20288;-70
2024/01/16 06:33:36;;;;;;;4.73;1.43;;;;;;;-2.45;100.00;99914.84;4963253;28;20254;-71
2024/01/16 06:36:06;;;;;;;2.93;1.57;;;;;;;-2.39;100.00;99923.00;4967830;28;20621;-70
2024/01/16 06:38:32;;;;;;;7.77;3.23;;;;;;;-2.48;100.00;99924.16;4969606;28;20210;-71
2024/01/16 06:41:00;;;;;;;2.73;1.20;;;;;;;-2.57;100.00;99915.03;4969867;28;20665;-70
2024/01/16 06:43:27;;;;;;;2.57;1.43;;;;;;;-2.61;100.00;99914.78;4965931;28;20666;-69
2024/01/16 06:45:53;;;;;;;2.20;1.40;;;;;;;-2.43;100.00;99915.81;4967889;28;20197;-71
2024/01/16 06:48:20;;;;;;;6.87;1.90;;;;;;;-2.38;100.00;99911.81;4966350;28;20567;-68
2024/01/16 06:50:47;;;;;;;6.67;1.97;;;;;;;-2.33;100.00;99914.66;4968007;28;20256;-70
2024/01/16 06:53:13;;;;;;;4.30;1.70;;;;;;;-2.28;100.00;99926.19;4968157;28;20656;-69
2024/01/16 06:55:42;;;;;;;1.47;1.13;;;;;;;-2.33;100.00;99923.34;4969673;28;20445;-70
2024/01/16 06:58:10;;;;;;;2.57;1.03;;;;;;;-2.43;100.00;99926.19;4968695;28;20204;-69
2024/01/16 07:00:36;;;;;;;2.80;1.63;;;;;;;-2.59;100.00;99929.63;4968146;28;20221;-69
2024/01/16 07:03:03;;;;;;;1.80;1.60;;;;;;;-2.64;100.00;99931.06;4967097;28;20214;-69
2024/01/16 07:05:29;;;;;;;2.07;1.17;;;;;;;-2.46;100.00;99935.50;4971458;28;20260;-69
2024/01/16 07:07:56;;;;;;;1.97;1.67;;;;;;;-2.53;100.00;99931.66;4971537;28;20237;-70
2024/01/16 07:10:24;;;;;;;4.37;2.23;;;;;;;-2.52;100.00;99928.25;4970864;28;20225;-70
2024/01/16 07:12:51;;;;;;;4.70;1.50;;;;;;;-2.53;100.00;99937.75;4972913;28;20206;-68
2024/01/16 07:15:18;;;;;;;5.20;1.90;;;;;;;-2.67;100.00;99938.66;4972054;28;20208;-70
2024/01/16 07:17:44;;;;;;;3.40;1.17;;;;;;;-2.78;100.00;99944.91;4972786;28;20211;-70
2024/01/16 07:20:11;;;;;;;7.20;3.73;;;;;;;-2.78;100.00;99947.50;4972791;28;20214;-71
2024/01/16 07:22:40;;;;;;;2.63;1.57;;;;;;;-2.80;100.00;99945.59;4968862;28;20202;-70
2024/01/16 07:25:07;;;;;;;8.83;2.03;;;;;;;-2.61;100.00;99944.19;4972847;28;20292;-70
2024/01/16 07:27:35;;;;;;;5.70;2.13;;;;;;;-2.63;100.00;99950.97;4972582;28;20752;-71
2024/01/16 07:30:04;;;;;;;8.10;4.20;;;;;;;-2.62;100.00;99951.88;4969736;28;20309;-70
2024/01/16 07:32:31;;;;;;;6.50;1.70;;;;;;;-2.50;100.00;99949.97;4972534;28;20206;-69
2024/01/16 07:34:58;;;;;;;4.63;2.07;;;;;;;-2.40;100.00;99961.78;4971353;28;20198;-71
2024/01/16 07:37:24;;;;;;;3.80;1.80;;;;;;;-2.33;100.00;99957.03;4969310;28;20200;-71
2024/01/16 07:39:51;;;;;;;3.97;2.30;;;;;;;-2.35;100.00;99952.59;4971287;28;20577;-70
2024/01/16 07:42:17;;;;;;;3.10;1.93;;;;;;;-2.35;100.00;99953.47;4964998;28;20248;-71
2024/01/16 07:44:43;;;;;;;11.97;4.60;;;;;;;-2.37;100.00;99956.78;4971574;28;20204;-70
2024/01/16 07:47:10;;;;;;;10.33;5.40;;;;;;;-2.38;100.00;99960.19;4970191;28;20616;-70
2024/01/16 07:49:36;;;;;;;11.30;4.80;;;;;;;-2.37;100.00;99956.78;4970821;28;20202;-70
2024/01/16 07:52:03;;;;;;;3.97;2.17;;;;;;;-2.33;100.00;99967.41;4970067;28;20774;-69
2024/01/16 07:54:30;;;;;;;4.83;2.23;;;;;;;-2.29;100.00;99964.19;4968240;28;20201;-68
2024/01/16 07:56:57;;;;;;;5.67;2.43;;;;;;;-2.17;100.00;99963.09;4970225;28;20256;-70
2024/01/16 07:59:24;;;;;;;3.77;2.17;;;;;;;-2.10;100.00;99963.53;4966787;28;20238;-68
2024/01/16 08:01:50;;;;;;;3.63;2.17;;;;;;;-2.06;100.00;99960.28;4971859;28;20226;-73
2024/01/16 08:04:17;;;;;;;4.23;2.03;;;;;;;-1.97;100.00;99963.41;4972221;28;20284;-71
2024/01/16 08:06:43;;;;;;;5.10;1.70;;;;;;;-1.93;100.00;99961.88;4971795;28;20225;-71
2024/01/16 08:09:12;;;;;;;9.17;2.00;;;;;;;-1.76;100.00;99968.88;4966275;28;20236;-70
2024/01/16 08:11:39;;;;;;;4.67;2.17;;;;;;;-1.69;100.00;99975.31;4970048;28;20218;-70
2024/01/16 08:14:06;;;;;;;4.70;1.93;;;;;;;-1.59;100.00;99964.63;4972627;28;20201;-72
2024/01/16 08:16:32;;;;;;;5.47;1.83;;;;;;;-1.50;100.00;99972.03;4970619;28;20281;-73
2024/01/16 08:18:59;;;;;;;9.00;3.70;;;;;;;-1.36;100.00;99973.66;4966038;28;20297;-73
2024/01/16 08:21:26;;;;;;;3.33;2.10;;;;;;;-1.31;100.00;99962.69;4970657;28;20285;-72
2024/01/16 08:23:52;;;;;;;4.80;2.30;;;;;;;-1.28;100.00;99962.84;4971302;28;20205;-74
2024/01/16 08:26:19;;;;;;;3.07;1.80;;;;;;;-1.23;100.00;99967.38;4971071;28;20261;-71
2024/01/16 08:28:45;;;;;;;6.90;2.13;;;;;;;-1.14;100.00;99971.41;4963403;28;20297;-72
2024/01/16 08:31:12;;;;;;;4.37;1.93;;;;;;;-1.11;100.00;99963.75;4969954;28;20249;-71
2024/01/16 08:33:38;;;;;;;2.30;1.20;;;;;;;-0.97;100.00;99973.16;4971438;28;20300;-73
2024/01/16 08:36:12;;;;;;;8.37;1.47;;;;;;;-0.86;100.00;99978.00;4971345;28;20213;-73
2024/01/16 08:38:39;;;;;;;8.13;3.67;;;;;;;-0.88;100.00;99977.03;4968831;28;20295;-71
2024/01/16 08:41:06;;;;;;;3.17;2.00;;;;;;;-0.77;100.00;99983.72;4959393;28;20714;-74
2024/01/16 08:43:33;;;;;;;5.40;1.93;;;;;;;-0.69;100.00;99979.78;4966187;28;20553;-73
2024/01/16 08:46:00;;;;;;;6.60;2.07;;;;;;;-0.69;100.00;99983.28;4973508;28;20206;-72
2024/01/16 08:48:26;;;;;;;6.03;3.67;;;;;;;-0.66;100.00;99980.84;4965750;28;20218;-72
2024/01/16 08:50:56;;;;;;;4.50;2.30;;;;;;;-0.56;100.00;99976.09;4965393;28;20232;-71
2024/01/16 08:53:23;;;;;;;5.90;2.20;;;;;;;-0.54;100.00;99975.34;4965040;28;20212;-75
2024/01/16 08:55:50;;;;;;;4.67;2.60;;;;;;;-0.41;100.00;99976.84;4962528;28;20215;-73
2024/01/16 08:58:16;;;;;;;12.23;2.47;;;;;;;-0.38;100.00;99977.03;4968116;28;20209;-72
2024/01/16 09:00:43;;;;;;;4.80;2.50;;;;;;;-0.27;100.00;99970.66;4965168;28;20704;-73
2024/01/16 09:03:11;;;;;;;10.20;2.77;;;;;;;-0.13;100.00;99971.31;4963762;28;20208;-72
2024/01/16 09:05:38;;;;;;;5.47;2.40;;;;;;;-0.14;100.00;99965.22;4968868;28;20198;-72
2024/01/16 09:08:07;;;;;;;6.73;2.40;;;;;;;-0.17;100.00;99970.28;4967730;28;20777;-72
2024/01/16 09:10:37;;;;;;;5.97;2.60;;;;;;;-0.18;100.00;99981.50;4961776;28;20302;-74
2024/01/16 09:13:03;;;;;;;5.10;2.17;;;;;;;-0.24;100.00;99978.59;4962789;28;20319;-72
2024/01/16 09:15:29;;;;;;;11.37;3.10;;;;;;;-0.35;100.00;99974.59;4967683;28;20735;-70
2024/01/16 09:17:57;;;;;;;5.57;2.60;;;;;;;-0.41;100.00;99964.75;4963384;28;20203;-73
2024/01/16 09:20:23;;;;;;;5.33;2.77;;;;;;;-0.44;100.00;99975.00;4966780;28;20224;-72
2024/01/16 09:22:50;;;;;;;5.30;2.23;;;;;;;-0.44;100.00;99969.78;4964367;28;20208;-71
2024/01/16 09:25:16;;;;;;;4.73;2.30;;;;;;;-0.19;100.00;99976.22;4958403;28;20213;-70
2024/01/16 09:27:43;;;;;;;8.73;2.80;;;;;;;0.07;100.00;99981.00;4962276;28;20307;-72
2024/01/16 09:30:10;;;;;;;6.73;2.77;;;;;;;0.30;100.00;99982.06;4967875;28;20204;-72
2024/01/16 09:32:37;;;;;;;4.63;2.67;;;;;;;0.57;100.00;99983.38;4966756;28;20213;-72
2024/01/16 09:35:06;;;;;;;4.40;2.57;;;;;;;0.60;100.00;99991.34;4964676;28;20239;-72
2024/01/16 09:37:33;;;;;;;6.20;2.90;;;;;;;0.54;100.00;99987.56;4967506;28;20699;-72
2024/01/16 09:39:59;;;;;;;7.00;3.10;;;;;;;0.55;100.00;100000.66;4964656;28;20209;-72
2024/01/16 09:42:27;;;;;;;6.80;3.07;;;;;;;0.63;100.00;100011.41;4959413;28;20227;-72
2024/01/16 09:44:55;;;;;;;10.73;3.03;;;;;;;0.78;100.00;100009.50;4964694;28;20272;-73
2024/01/16 09:47:22;;;;;;;6.27;3.07;;;;;;;0.98;100.00;100006.94;4966646;28;20252;-72
2024/01/16 09:49:49;;;;;;;8.53;2.70;;;;;;;1.21;100.00;100003.66;4971424;28;20260;-73
2024/01/16 09:52:16;;;;;;;5.83;2.70;;;;;;;1.27;100.00;100001.31;4965545;28;20319;-72
2024/01/16 09:54:42;;;;;;;8.07;2.80;;;;;;;1.38;100.00;99992.22;4960509;28;20216;-74
2024/01/16 09:57:12;;;;;;;7.23;2.87;;;;;;;1.50;100.00;100010.13;4968842;28;20209;-74
2024/01/16 09:59:39;;;;;;;11.70;3.30;;;;;;;1.43;100.00;100008.97;4961876;28;20201;-74
2024/01/16 10:02:10;;;;;;;5.20;2.93;;;;;;;1.51;100.00;99998.84;4966502;28;20721;-74
2024/01/16 10:04:37;;;;;;;7.10;3.60;;;;;;;1.46;100.00;99998.66;4969204;28;20233;-75
2024/01/16 10:07:04;;;;;;;8.40;3.17;;;;;;;1.50;100.00;100002.28;4969906;28;20608;-73
2024/01/16 10:09:30;;;;;;;7.73;3.87;;;;;;;1.51;100.00;99996.25;4966104;28;20229;-76
2024/01/16 10:11:57;;;;;;;6.53;3.33;;;;;;;1.53;100.00;100002.41;4971187;28;20275;-74
2024/01/16 10:14:24;;;;;;;5.23;3.07;;;;;;;1.54;100.00;100005.09;4969897;28;20204;-73
2024/01/16 10:17:15;;;;;;;6.20;3.67;;;;;;;1.56;100.00;99999.94;4960619;28;20198;-76
2024/01/16 10:19:50;;;;;;;5.40;2.90;;;;;;;1.70;100.00;100003.16;4966435;28;20314;-73
2024/01/16 10:22:22;;;;;;;5.23;3.00;;;;;;;1.90;100.00;99994.41;4971918;28;20229;-73
2024/01/16 10:25:12;;;;;;;7.87;2.90;;;;;;;2.06;100.00;99983.78;4964829;28;20579;-73
2024/01/16 10:27:39;;;;;;;6.77;3.00;;;;;;;2.17;100.00;99979.00;4967470;28;20232;-72
2024/01/16 10:30:07;;;;;;;9.03;3.23;;;;;;;2.10;100.00;99976.97;4969186;28;20590;-72
2024/01/16 10:32:35;;;;;;;9.80;3.97;;;;;;;2.18;100.00;99980.78;4969565;28;20237;-74
2024/01/16 10:35:13;;;;;;;8.20;3.53;;;;;;;2.20;100.00;99977.38;4963418;28;20751;-74
2024/01/16 10:37:46;;;;;;;9.03;3.63;;;;;;;2.18;100.00;99979.06;4967973;28;20233;-73
2024/01/16 10:40:26;;;;;;;10.53;3.90;;;;;;;2.08;100.00;99976.91;4971572;28;20213;-73
2024/01/16 10:43:04;;;;;;;8.73;4.10;;;;;;;2.08;100.00;99981.25;4968456;28;20213;-74
2024/01/16 10:45:32;;;;;;;8.63;4.50;;;;;;;2.09;100.00;99981.31;4968445;28;20211;-74
2024/01/16 10:48:07;;;;;;;7.73;3.93;;;;;;;2.10;100.00;99975.25;4967466;28;20288;-72
2024/01/16 10:50:35;;;;;;;9.43;4.07;;;;;;;2.10;100.00;99980.47;4967231;28;20255;-74
2024/01/16 10:53:07;;;;;;;12.87;3.97;;;;;;;2.12;100.00;99965.75;4971312;28;20215;-75
2024/01/16 10:55:51;;;;;;;6.43;3.27;;;;;;;2.06;100.00;99962.00;4968903;28;20719;-75
2024/01/16 10:58:23;;;;;;;10.20;3.57;;;;;;;2.09;100.00;99963.03;4959977;28;20199;-76
2024/01/16 11:00:52;;;;;;;6.33;3.07;;;;;;;2.06;100.00;99959.41;4965738;28;20222;-74
2024/01/16 11:03:25;;;;;;;7.53;4.30;;;;;;;2.07;100.00;99955.94;4970550;28;20667;-75
2024/01/16 11:05:53;;;;;;;8.20;4.20;;;;;;;2.04;100.00;99934.94;4965683;28;20208;-73
2024/01/16 11:08:20;;;;;;;7.60;3.00;;;;;;;2.05;100.00;99936.72;4971274;28;20227;-74
2024/01/16 11:10:48;;;;;;;5.20;2.90;;;;;;;2.14;100.00;99935.34;4963064;28;20780;-74
2024/01/16 11:13:17;;;;;;;7.70;3.53;;;;;;;2.27;100.00;99944.56;4973864;28;20212;-76
2024/01/16 11:15:47;;;;;;;8.97;3.73;;;;;;;2.38;100.00;99938.00;4963455;28;20653;-74
2024/01/16 11:18:16;;;;;;;8.50;3.60;;;;;;;2.50;100.00;99945.47;4958947;28;20202;-73
2024/01/16 11:20:44;;;;;;;8.57;3.43;;;;;;;2.63;100.00;99932.00;4964838;28;20236;-74
2024/01/16 11:23:31;;;;;;;7.17;3.43;;;;;;;2.73;100.00;99922.78;4958387;28;20208;-73
2024/01/16 11:25:57;;;;;;;6.17;3.17;;;;;;;2.88;100.00;99912.00;4967892;28;20658;-73
2024/01/16 11:28:31;;;;;;;7.97;3.27;;;;;;;2.87;100.00;99915.47;4969063;28;20773;-72